< < Back
Terminal Aerodrome Forecast


Current Version              Previous Versions:   1  2  3  4  5  6  7  8  9  

Terminal Aerodrome Forecast

130
FTUS42 KJAX 011927 AAB
TAFJAX
TAF AMD
KJAX 011927Z 0119/0218 20008KT P6SM BKN018 BKN150
      TEMPO 0119/0122 4SM SHRA BKN008 OVC025
     FM012300 19006KT P6SM SCT022 BKN035 BKN250
     FM021500 23010KT P6SM VCTS BKN030CB=

Latest METAR

766
SAUS80 KWBC 020400 RRA
MTRJAX
METAR KJAX 020356Z 17009KT 10SM FEW024 FEW100 OVC200 25/22 A2991 RMK AO2
SLP128 T02500222


USA.gov is the U.S. government's official web portal to all federal, state and local government web resources and services.